Time;durP1;ratioP1;P1;durP2;ratioP2;P2;SDS_P1;SDS_P2;PMS_P1;PMS_P2;Temp;Humidity;BMP_temperature;BMP_pressure;BME280_temperature;BME280_humidity;BME280_pressure;Samples;Min_cycle;Max_cycle;Signal;HPM_P1;HPM_P2
2022/10/24 00:00:30;;;;;;;11.77;4.57;;;;;;;;;;5120407;28;20192;-70
2022/10/24 00:02:56;;;;;;;6.67;4.10;;;;;;;;;;5122336;28;20234;-71
2022/10/24 00:05:22;;;;;;;8.77;4.20;;;;;;;;;;5125692;28;20192;-68
2022/10/24 00:07:49;;;;;;;10.47;4.10;;;;;;;;;;5123928;28;20173;-69
2022/10/24 00:10:15;;;;;;;11.00;4.57;;;;;;;;;;5122027;28;20224;-69
2022/10/24 00:12:41;;;;;;;10.50;5.03;;;;;;;;;;5123523;28;20180;-69
2022/10/24 00:15:07;;;;;;;14.37;4.13;;;;;;;;;;5117088;27;20196;-70
2022/10/24 00:17:33;;;;;;;12.37;5.63;;;;;;;;;;5113976;28;20245;-69
2022/10/24 00:19:59;;;;;;;16.47;5.70;;;;;;;;;;5115370;28;20211;-69
2022/10/24 00:22:26;;;;;;;10.87;5.17;;;;;;;;;;5115303;28;20725;-70
2022/10/24 00:24:52;;;;;;;10.60;4.90;;;;;;;;;;5113782;28;20204;-69
2022/10/24 00:27:18;;;;;;;13.70;5.80;;;;;;;;;;5113561;28;20229;-68
2022/10/24 00:29:44;;;;;;;8.23;4.93;;;;;;;;;;5115164;28;20594;-69
2022/10/24 00:32:10;;;;;;;16.30;4.30;;;;;;;;;;5115422;28;20180;-69
2022/10/24 00:34:37;;;;;;;13.27;4.47;;;;;;;;;;5113619;28;20212;-69
2022/10/24 00:37:03;;;;;;;17.47;5.00;;;;;;;;;;5113751;28;20200;-69
2022/10/24 00:39:29;;;;;;;12.37;4.87;;;;;;;;;;5115419;28;20183;-69
2022/10/24 00:41:57;;;;;;;12.90;4.83;;;;;;;;;;5113450;28;20177;-69
2022/10/24 00:44:31;;;;;;;11.67;4.67;;;;;;;;;;5115045;28;20184;-69
2022/10/24 00:47:00;;;;;;;9.80;5.17;;;;;;;;;;5113576;28;20164;-70
2022/10/24 00:49:29;;;;;;;12.97;4.33;;;;;;;;;;5115141;28;20176;-70
2022/10/24 00:51:58;;;;;;;8.73;4.60;;;;;;;;;;5113380;28;20184;-71
2022/10/24 00:54:24;;;;;;;14.60;4.47;;;;;;;;;;5114600;28;20203;-69
2022/10/24 00:56:56;;;;;;;13.93;5.17;;;;;;;;;;5115167;28;20196;-70
2022/10/24 00:59:23;;;;;;;11.00;4.13;;;;;;;;;;5115288;28;20310;-69
2022/10/24 01:01:49;;;;;;;11.13;4.07;;;;;;;;;;5114629;28;20188;-69
2022/10/24 01:04:15;;;;;;;11.27;3.97;;;;;;;;;;5114612;28;20192;-71
2022/10/24 01:06:46;;;;;;;12.13;4.73;;;;;;;;;;5115256;28;20180;-70
2022/10/24 01:09:12;;;;;;;15.00;4.50;;;;;;;;;;5113366;28;20176;-70
2022/10/24 01:11:50;;;;;;;8.23;4.20;;;;;;;;;;5114809;28;20179;-70
2022/10/24 01:14:45;;;;;;;17.93;5.07;;;;;;;;;;5114456;28;20200;-70
2022/10/24 01:17:22;;;;;;;15.63;5.20;;;;;;;;;;5114831;28;20188;-70
2022/10/24 01:20:12;;;;;;;12.67;4.83;;;;;;;;;;5113374;28;20550;-69
2022/10/24 01:22:47;;;;;;;15.70;5.50;;;;;;;;;;5114851;28;20164;-70
2022/10/24 01:25:32;;;;;;;13.10;5.33;;;;;;;;;;5113165;28;20203;-70
2022/10/24 01:28:04;;;;;;;12.43;5.10;;;;;;;;;;5113493;28;20317;-70
2022/10/24 01:30:33;;;;;;;13.77;5.10;;;;;;;;;;5114595;28;20180;-69
2022/10/24 01:33:02;;;;;;;11.57;5.20;;;;;;;;;;5114452;28;20176;-69
2022/10/24 01:35:47;;;;;;;8.30;4.13;;;;;;;;;;5113099;28;20224;-69
2022/10/24 01:38:18;;;;;;;11.37;4.37;;;;;;;;;;5114579;28;20191;-70
2022/10/24 01:40:53;;;;;;;8.10;4.10;;;;;;;;;;5114845;28;20546;-70
2022/10/24 01:43:22;;;;;;;14.83;4.33;;;;;;;;;;5138007;22;20200;-66
2022/10/24 01:45:50;;;;;;;17.00;4.90;;;;;;;;;;5072832;28;20173;-67
2022/10/24 01:48:19;;;;;;;10.33;5.30;;;;;;;;;;5072995;28;20174;-67
2022/10/24 01:50:46;;;;;;;15.20;4.70;;;;;;;;;;5054724;28;20231;-67
2022/10/24 01:53:12;;;;;;;12.03;4.10;;;;;;;;;;5054624;28;20182;-67
2022/10/24 01:55:39;;;;;;;9.50;4.00;;;;;;;;;;5054674;28;20186;-67
2022/10/24 01:58:06;;;;;;;10.23;3.97;;;;;;;;;;5054740;28;20242;-67
2022/10/24 02:00:32;;;;;;;10.30;3.93;;;;;;;;;;5072527;28;20220;-67
2022/10/24 02:03:00;;;;;;;9.00;3.37;;;;;;;;;;5054557;28;20630;-67
2022/10/24 02:05:31;;;;;;;11.73;4.10;;;;;;;;;;5072492;28;20197;-67
2022/10/24 02:08:00;;;;;;;12.83;4.57;;;;;;;;;;5072785;28;20245;-67
2022/10/24 02:10:29;;;;;;;8.67;3.80;;;;;;;;;;5072486;28;20213;-66
2022/10/24 02:12:59;;;;;;;9.47;3.40;;;;;;;;;;5072524;28;20681;-66
2022/10/24 02:15:28;;;;;;;8.63;3.97;;;;;;;;;;5054297;28;20202;-66
2022/10/24 02:17:54;;;;;;;6.77;3.70;;;;;;;;;;5072251;28;20262;-66
2022/10/24 02:20:24;;;;;;;10.27;3.90;;;;;;;;;;5072939;28;20188;-66
2022/10/24 02:22:55;;;;;;;8.33;3.70;;;;;;;;;;5074378;28;20173;-66
2022/10/24 02:25:25;;;;;;;10.83;3.93;;;;;;;;;;5058035;28;20205;-66
2022/10/24 02:27:56;;;;;;;9.67;4.20;;;;;;;;;;5058084;28;20257;-66
2022/10/24 02:30:24;;;;;;;9.73;3.83;;;;;;;;;;5057902;28;20627;-66
2022/10/24 02:32:52;;;;;;;9.93;3.63;;;;;;;;;;5075883;28;20178;-66
2022/10/24 02:35:19;;;;;;;9.00;3.93;;;;;;;;;;5075637;28;20217;-67
2022/10/24 02:37:47;;;;;;;10.00;4.03;;;;;;;;;;5075841;28;20642;-66
2022/10/24 02:40:15;;;;;;;6.90;3.73;;;;;;;;;;5075582;28;20198;-66
2022/10/24 02:42:42;;;;;;;11.33;4.27;;;;;;;;;;5057538;28;20188;-66
2022/10/24 02:45:09;;;;;;;11.37;4.43;;;;;;;;;;5075447;28;20256;-66
2022/10/24 02:47:35;;;;;;;13.03;4.73;;;;;;;;;;5075452;28;20182;-66
2022/10/24 02:50:01;;;;;;;9.83;4.00;;;;;;;;;;5075683;28;20236;-66
2022/10/24 02:52:29;;;;;;;18.17;5.43;;;;;;;;;;5057479;28;20181;-66
2022/10/24 02:54:55;;;;;;;9.77;4.57;;;;;;;;;;5075319;28;20277;-66
2022/10/24 02:57:22;;;;;;;15.43;5.77;;;;;;;;;;5057099;28;20210;-66
2022/10/24 02:59:48;;;;;;;7.47;4.57;;;;;;;;;;5057823;28;20654;-67
2022/10/24 03:02:15;;;;;;;10.47;4.80;;;;;;;;;;5075641;28;20173;-66
2022/10/24 03:04:41;;;;;;;11.30;5.03;;;;;;;;;;5075159;28;20206;-66
2022/10/24 03:07:06;;;;;;;11.87;4.47;;;;;;;;;;5075047;28;20204;-66
2022/10/24 03:09:33;;;;;;;15.97;5.20;;;;;;;;;;5057130;28;20181;-66
2022/10/24 03:11:59;;;;;;;15.60;5.20;;;;;;;;;;5075147;28;20188;-66
2022/10/24 03:14:25;;;;;;;14.23;5.77;;;;;;;;;;5075054;28;20220;-66
2022/10/24 03:16:51;;;;;;;12.07;5.07;;;;;;;;;;5074989;28;20206;-67
2022/10/24 03:19:17;;;;;;;12.40;5.23;;;;;;;;;;5074887;28;20626;-66
2022/10/24 03:21:43;;;;;;;15.90;5.07;;;;;;;;;;5074978;28;20181;-66
2022/10/24 03:24:09;;;;;;;12.73;4.37;;;;;;;;;;5074779;28;20194;-66
2022/10/24 03:26:35;;;;;;;9.93;4.77;;;;;;;;;;5075327;28;20622;-67
2022/10/24 03:29:01;;;;;;;12.47;5.20;;;;;;;;;;5056980;28;20224;-67
2022/10/24 03:31:27;;;;;;;12.73;5.50;;;;;;;;;;5074764;28;20223;-66
2022/10/24 03:33:53;;;;;;;13.43;6.03;;;;;;;;;;5074344;28;20198;-65
2022/10/24 03:36:18;;;;;;;16.70;5.47;;;;;;;;;;5075148;28;20707;-66
2022/10/24 03:38:44;;;;;;;14.63;6.57;;;;;;;;;;5074670;28;20683;-67
2022/10/24 03:41:10;;;;;;;16.37;7.03;;;;;;;;;;5074461;28;20601;-65
2022/10/24 03:43:36;;;;;;;20.97;7.50;;;;;;;;;;5074321;28;20209;-65
2022/10/24 03:46:02;;;;;;;18.50;6.90;;;;;;;;;;5074410;28;20166;-66
2022/10/24 03:48:28;;;;;;;22.47;7.27;;;;;;;;;;5056305;28;20269;-68
2022/10/24 03:50:54;;;;;;;14.47;7.00;;;;;;;;;;5074450;28;20658;-66
2022/10/24 03:53:20;;;;;;;15.93;6.57;;;;;;;;;;5074973;28;20185;-66
2022/10/24 03:55:46;;;;;;;13.53;6.17;;;;;;;;;;5074709;28;20628;-66
2022/10/24 03:58:12;;;;;;;19.67;6.70;;;;;;;;;;5074274;28;20675;-65
2022/10/24 04:00:39;;;;;;;15.13;5.80;;;;;;;;;;5074110;28;20229;-66
2022/10/24 04:03:05;;;;;;;16.93;6.20;;;;;;;;;;5073874;28;20172;-66
2022/10/24 04:05:33;;;;;;;9.60;4.43;;;;;;;;;;5074417;28;20208;-66
2022/10/24 04:07:59;;;;;;;11.83;4.87;;;;;;;;;;5074658;28;20261;-65
2022/10/24 04:10:25;;;;;;;13.93;4.80;;;;;;;;;;5074443;28;20178;-66
2022/10/24 04:12:51;;;;;;;15.43;4.17;;;;;;;;;;5074741;28;20188;-66
2022/10/24 04:15:17;;;;;;;11.40;3.50;;;;;;;;;;5074827;28;20216;-66
2022/10/24 04:17:43;;;;;;;8.23;3.70;;;;;;;;;;5055780;28;20624;-65
2022/10/24 04:20:09;;;;;;;7.37;3.00;;;;;;;;;;5073910;28;20261;-66
2022/10/24 04:22:35;;;;;;;11.63;3.83;;;;;;;;;;5074053;28;20170;-66
2022/10/24 04:25:01;;;;;;;9.07;2.97;;;;;;;;;;5073637;28;20571;-66
2022/10/24 04:27:27;;;;;;;8.33;3.20;;;;;;;;;;5055586;28;20191;-66
2022/10/24 04:29:53;;;;;;;12.10;2.83;;;;;;;;;;5073925;28;20173;-65
2022/10/24 04:32:19;;;;;;;8.33;3.17;;;;;;;;;;5055695;28;20562;-66
2022/10/24 04:34:44;;;;;;;9.13;3.13;;;;;;;;;;5073468;28;20574;-65
2022/10/24 04:37:10;;;;;;;9.90;2.73;;;;;;;;;;5073858;28;20208;-66
2022/10/24 04:39:36;;;;;;;9.40;3.10;;;;;;;;;;5073690;28;20217;-65
2022/10/24 04:42:02;;;;;;;6.77;2.33;;;;;;;;;;5073333;28;20170;-66
2022/10/24 04:44:28;;;;;;;10.80;3.00;;;;;;;;;;5054865;28;20218;-66
2022/10/24 04:46:54;;;;;;;9.63;3.20;;;;;;;;;;5054988;28;20646;-66
2022/10/24 04:49:20;;;;;;;6.90;3.13;;;;;;;;;;5055261;28;20224;-67
2022/10/24 04:51:46;;;;;;;10.57;3.97;;;;;;;;;;5073231;28;20174;-66
2022/10/24 04:54:12;;;;;;;9.87;3.70;;;;;;;;;;5073060;28;20280;-66
2022/10/24 04:56:38;;;;;;;7.67;3.70;;;;;;;;;;5073093;28;20205;-67
2022/10/24 04:59:04;;;;;;;8.13;3.53;;;;;;;;;;5073469;28;20176;-66
2022/10/24 05:01:30;;;;;;;7.43;3.10;;;;;;;;;;5055285;28;20209;-66
2022/10/24 05:03:56;;;;;;;7.40;3.23;;;;;;;;;;5073210;28;20204;-66
2022/10/24 05:06:22;;;;;;;7.57;3.40;;;;;;;;;;5072943;28;20272;-66
2022/10/24 05:08:48;;;;;;;8.40;3.10;;;;;;;;;;5055214;28;20177;-66
2022/10/24 05:11:14;;;;;;;6.87;2.97;;;;;;;;;;5073488;28;20258;-66
2022/10/24 05:13:41;;;;;;;8.70;2.67;;;;;;;;;;5072907;28;20206;-66
2022/10/24 05:16:07;;;;;;;5.17;2.93;;;;;;;;;;5055049;28;20188;-66
2022/10/24 05:18:33;;;;;;;6.07;2.80;;;;;;;;;;5055278;28;20642;-66
2022/10/24 05:20:59;;;;;;;5.93;2.73;;;;;;;;;;5073959;28;20177;-66
2022/10/24 05:23:26;;;;;;;7.23;2.50;;;;;;;;;;5073185;28;20189;-66
2022/10/24 05:25:52;;;;;;;8.57;2.57;;;;;;;;;;5055097;28;20205;-67
2022/10/24 05:28:18;;;;;;;6.27;2.20;;;;;;;;;;5073022;28;20231;-66
2022/10/24 05:30:44;;;;;;;11.00;2.73;;;;;;;;;;5055011;28;20182;-67
2022/10/24 05:33:10;;;;;;;7.07;2.60;;;;;;;;;;5072984;28;20188;-66
2022/10/24 05:35:36;;;;;;;4.70;2.73;;;;;;;;;;5072945;28;20580;-66
2022/10/24 05:38:02;;;;;;;12.43;2.93;;;;;;;;;;5073096;28;20297;-66
2022/10/24 05:40:28;;;;;;;8.57;2.57;;;;;;;;;;5055002;28;20559;-67
2022/10/24 05:42:54;;;;;;;6.87;2.90;;;;;;;;;;5073495;28;20174;-66
2022/10/24 05:45:21;;;;;;;5.97;2.40;;;;;;;;;;5054734;28;20224;-66
2022/10/24 05:47:47;;;;;;;6.80;2.37;;;;;;;;;;5054952;28;20226;-66
2022/10/24 05:50:13;;;;;;;10.60;2.77;;;;;;;;;;5054940;28;20272;-66
2022/10/24 05:52:41;;;;;;;8.90;2.63;;;;;;;;;;5054869;28;20186;-66
2022/10/24 05:55:07;;;;;;;4.80;2.30;;;;;;;;;;5054764;28;20206;-66
2022/10/24 05:57:34;;;;;;;6.30;2.20;;;;;;;;;;5075588;28;20212;-66
2022/10/24 06:00:00;;;;;;;6.33;2.77;;;;;;;;;;5081044;28;20196;-66
2022/10/24 06:02:26;;;;;;;7.23;2.43;;;;;;;;;;5083162;28;20681;-67
2022/10/24 06:04:54;;;;;;;8.83;2.27;;;;;;;;;;5081813;28;20193;-67
2022/10/24 06:07:20;;;;;;;7.10;3.13;;;;;;;;;;5063858;28;20184;-66
2022/10/24 06:09:46;;;;;;;5.40;2.53;;;;;;;;;;5058920;28;20210;-67
2022/10/24 06:12:12;;;;;;;6.90;2.57;;;;;;;;;;5076161;28;20264;-67
2022/10/24 06:14:39;;;;;;;4.47;2.17;;;;;;;;;;5076424;28;20193;-66
2022/10/24 06:17:08;;;;;;;8.53;2.80;;;;;;;;;;5058248;28;20202;-66
2022/10/24 06:19:35;;;;;;;7.07;2.63;;;;;;;;;;5076185;28;20177;-66
2022/10/24 06:22:00;;;;;;;7.83;2.70;;;;;;;;;;5076138;28;20638;-66
2022/10/24 06:24:26;;;;;;;6.27;2.80;;;;;;;;;;5058135;28;20204;-67
2022/10/24 06:26:52;;;;;;;9.40;2.97;;;;;;;;;;5058242;28;20247;-66
2022/10/24 06:29:18;;;;;;;9.57;2.93;;;;;;;;;;5076352;28;20231;-66
2022/10/24 06:31:44;;;;;;;9.37;2.43;;;;;;;;;;5075937;28;20232;-66
2022/10/24 06:34:10;;;;;;;6.77;2.80;;;;;;;;;;5075858;28;20212;-66
2022/10/24 06:36:36;;;;;;;6.53;2.40;;;;;;;;;;5075976;28;20208;-66
2022/10/24 06:39:02;;;;;;;8.83;2.77;;;;;;;;;;5057911;28;20178;-66
2022/10/24 06:41:28;;;;;;;6.53;2.70;;;;;;;;;;5076238;28;20224;-66
2022/10/24 06:43:55;;;;;;;8.13;2.40;;;;;;;;;;5057664;28;20218;-66
2022/10/24 06:46:22;;;;;;;5.70;2.67;;;;;;;;;;5075654;28;20188;-66
2022/10/24 06:48:48;;;;;;;8.97;2.83;;;;;;;;;;5075588;28;20174;-66
2022/10/24 06:51:15;;;;;;;6.77;2.37;;;;;;;;;;5075830;28;20182;-66
2022/10/24 06:53:41;;;;;;;4.80;2.60;;;;;;;;;;5075493;28;20687;-66
2022/10/24 06:56:07;;;;;;;5.70;2.53;;;;;;;;;;5057420;28;20557;-66
2022/10/24 06:58:37;;;;;;;9.23;3.00;;;;;;;;;;5075580;28;20174;-67
2022/10/24 07:01:13;;;;;;;9.60;2.90;;;;;;;;;;5075590;28;20178;-67
2022/10/24 07:03:39;;;;;;;4.83;2.33;;;;;;;;;;5075351;28;20727;-68
2022/10/24 07:06:10;;;;;;;7.80;2.60;;;;;;;;;;5075329;28;20256;-67
2022/10/24 07:08:35;;;;;;;7.87;2.83;;;;;;;;;;5075030;28;20184;-67
2022/10/24 07:11:01;;;;;;;5.53;2.80;;;;;;;;;;5075213;28;20185;-67
2022/10/24 07:13:29;;;;;;;6.10;2.57;;;;;;;;;;5075103;28;20170;-67
2022/10/24 07:15:55;;;;;;;10.73;3.80;;;;;;;;;;5075300;28;20173;-68
2022/10/24 07:18:21;;;;;;;5.97;2.53;;;;;;;;;;5074974;28;20685;-67
2022/10/24 07:20:47;;;;;;;4.43;2.07;;;;;;;;;;5074838;28;20178;-67
2022/10/24 07:23:13;;;;;;;4.37;2.27;;;;;;;;;;5056761;28;20189;-67
2022/10/24 07:25:39;;;;;;;6.97;2.30;;;;;;;;;;5075136;28;20178;-67
2022/10/24 07:28:06;;;;;;;5.83;1.97;;;;;;;;;;5075227;28;20209;-67
2022/10/24 07:30:32;;;;;;;5.70;2.30;;;;;;;;;;5056957;28;20182;-67
2022/10/24 07:32:58;;;;;;;5.23;2.27;;;;;;;;;;5074881;28;20326;-67
2022/10/24 07:35:24;;;;;;;7.50;2.33;;;;;;;;;;5074880;28;20291;-67
2022/10/24 07:37:50;;;;;;;6.17;2.00;;;;;;;;;;5074601;28;20209;-67
2022/10/24 07:40:17;;;;;;;6.93;2.30;;;;;;;;;;5074605;28;20166;-68
2022/10/24 07:42:43;;;;;;;4.43;2.23;;;;;;;;;;5056650;28;20228;-67
2022/10/24 07:45:09;;;;;;;6.33;2.40;;;;;;;;;;5075774;28;20304;-67
2022/10/24 07:47:35;;;;;;;8.20;2.33;;;;;;;;;;5074500;28;20200;-67
2022/10/24 07:50:01;;;;;;;5.20;2.00;;;;;;;;;;5056476;28;20280;-67
2022/10/24 07:52:27;;;;;;;5.03;2.20;;;;;;;;;;5074279;28;20177;-67
2022/10/24 07:54:53;;;;;;;5.10;1.97;;;;;;;;;;5074415;28;20211;-67
2022/10/24 07:57:20;;;;;;;11.40;2.73;;;;;;;;;;5056309;28;20201;-67
2022/10/24 07:59:45;;;;;;;6.03;2.30;;;;;;;;;;5074269;28;20178;-67
2022/10/24 08:02:12;;;;;;;5.87;2.10;;;;;;;;;;5074127;28;20193;-67
2022/10/24 08:04:39;;;;;;;6.13;2.00;;;;;;;;;;5056246;28;20202;-67
2022/10/24 08:07:11;;;;;;;7.73;2.20;;;;;;;;;;5074082;28;20703;-68
2022/10/24 08:09:38;;;;;;;4.93;2.40;;;;;;;;;;5074052;28;20169;-67
2022/10/24 08:12:04;;;;;;;8.10;2.33;;;;;;;;;;5056039;28;20277;-67
2022/10/24 08:14:30;;;;;;;6.13;2.20;;;;;;;;;;5055947;28;20296;-67
2022/10/24 08:16:56;;;;;;;7.77;2.10;;;;;;;;;;5073777;28;20685;-66
2022/10/24 08:19:22;;;;;;;7.27;2.57;;;;;;;;;;5055555;28;20653;-67
2022/10/24 08:21:49;;;;;;;5.87;2.30;;;;;;;;;;5073874;28;20170;-66
2022/10/24 08:24:15;;;;;;;5.67;2.47;;;;;;;;;;5073784;28;20190;-67
2022/10/24 08:26:41;;;;;;;6.90;2.10;;;;;;;;;;5074117;28;20186;-67
2022/10/24 08:29:13;;;;;;;7.57;2.67;;;;;;;;;;5073682;28;20602;-66
2022/10/24 08:31:39;;;;;;;7.17;2.80;;;;;;;;;;5055969;28;20223;-66
2022/10/24 08:34:05;;;;;;;7.50;2.20;;;;;;;;;;5055843;28;20209;-66
2022/10/24 08:36:32;;;;;;;8.10;2.50;;;;;;;;;;5055579;28;20205;-66
2022/10/24 08:38:58;;;;;;;6.73;2.47;;;;;;;;;;5055892;28;20185;-66
2022/10/24 08:41:32;;;;;;;9.67;2.57;;;;;;;;;;5073906;28;20268;-67
2022/10/24 08:44:00;;;;;;;8.80;2.23;;;;;;;;;;5073237;28;20216;-66
2022/10/24 08:46:35;;;;;;;6.73;2.70;;;;;;;;;;5073221;28;20181;-66
2022/10/24 08:49:04;;;;;;;8.20;2.57;;;;;;;;;;5055171;28;20276;-66
2022/10/24 08:51:47;;;;;;;6.30;2.40;;;;;;;;;;5055303;28;20181;-66
2022/10/24 08:54:16;;;;;;;7.87;2.40;;;;;;;;;;5073087;28;20614;-66
2022/10/24 08:56:42;;;;;;;6.20;1.80;;;;;;;;;;5073369;28;20280;-66
2022/10/24 08:59:10;;;;;;;7.53;2.63;;;;;;;;;;5055212;28;20213;-67
2022/10/24 09:01:42;;;;;;;4.00;1.93;;;;;;;;;;5073048;28;20182;-66
2022/10/24 09:04:09;;;;;;;8.60;3.00;;;;;;;;;;5054951;28;20205;-66
2022/10/24 09:06:36;;;;;;;6.30;2.17;;;;;;;;;;5073025;28;20261;-66
2022/10/24 09:09:10;;;;;;;10.23;2.77;;;;;;;;;;5055203;28;20182;-65
2022/10/24 09:11:36;;;;;;;7.37;2.27;;;;;;;;;;5073649;28;20166;-65
2022/10/24 09:14:06;;;;;;;5.47;2.37;;;;;;;;;;5073156;28;20201;-65
2022/10/24 09:16:32;;;;;;;9.10;2.60;;;;;;;;;;5073269;28;20198;-65
2022/10/24 09:18:58;;;;;;;7.23;2.23;;;;;;;;;;5054890;28;20235;-65
2022/10/24 09:21:25;;;;;;;10.20;2.80;;;;;;;;;;5054843;28;20178;-65
2022/10/24 09:23:51;;;;;;;10.13;2.27;;;;;;;;;;5054835;28;20555;-65
2022/10/24 09:26:28;;;;;;;8.40;2.40;;;;;;;;;;5054961;28;20555;-66
2022/10/24 09:28:55;;;;;;;11.33;2.80;;;;;;;;;;5054831;28;20177;-66
2022/10/24 09:31:23;;;;;;;6.17;2.40;;;;;;;;;;5073805;28;20666;-66
2022/10/24 09:33:51;;;;;;;6.13;2.30;;;;;;;;;;5076859;28;20185;-65
2022/10/24 09:36:18;;;;;;;7.83;2.37;;;;;;;;;;5058803;28;20638;-66
2022/10/24 09:38:45;;;;;;;8.87;2.50;;;;;;;;;;5076938;28;20231;-65
2022/10/24 09:41:28;;;;;;;6.37;2.43;;;;;;;;;;5076664;28;20181;-66
2022/10/24 09:43:56;;;;;;;12.70;2.60;;;;;;;;;;5076655;28;20656;-66
2022/10/24 09:46:24;;;;;;;7.10;2.10;;;;;;;;;;5058623;28;20606;-66
2022/10/24 09:48:52;;;;;;;9.17;2.50;;;;;;;;;;5058581;28;20277;-66
2022/10/24 09:51:21;;;;;;;9.03;2.43;;;;;;;;;;5058602;28;20186;-66
2022/10/24 09:54:06;;;;;;;9.37;3.10;;;;;;;;;;5076551;28;20656;-66
2022/10/24 09:56:39;;;;;;;7.07;1.93;;;;;;;;;;5076692;28;20202;-66
2022/10/24 09:59:32;;;;;;;9.57;2.73;;;;;;;;;;5058503;28;20192;-66
2022/10/24 10:02:12;;;;;;;8.93;2.30;;;;;;;;;;5035822;28;20221;-65
2022/10/24 10:04:39;;;;;;;8.63;2.63;;;;;;;;;;5058341;28;20202;-66
2022/10/24 10:07:09;;;;;;;10.67;3.10;;;;;;;;;;5076350;28;20212;-66
2022/10/24 10:09:40;;;;;;;9.80;2.77;;;;;;;;;;5058256;28;20205;-66
2022/10/24 10:12:23;;;;;;;10.53;2.90;;;;;;;;;;5076334;28;20606;-65
2022/10/24 10:14:50;;;;;;;9.40;4.63;;;;;;;;;;5075971;28;20318;-66
2022/10/24 10:17:21;;;;;;;8.67;3.30;;;;;;;;;;5057951;28;20292;-66
2022/10/24 10:19:47;;;;;;;14.33;4.60;;;;;;;;;;5076166;28;20230;-66
2022/10/24 10:22:21;;;;;;;10.03;3.83;;;;;;;;;;5076493;28;20189;-66
2022/10/24 10:24:47;;;;;;;11.70;3.13;;;;;;;;;;5075931;28;20198;-66
2022/10/24 10:27:46;;;;;;;5.97;2.50;;;;;;;;;;5057985;28;20215;-66
2022/10/24 10:30:15;;;;;;;8.23;3.23;;;;;;;;;;5025260;28;20277;-66
2022/10/24 10:32:53;;;;;;;6.03;2.90;;;;;;;;;;5057788;28;20186;-66
2022/10/24 10:35:21;;;;;;;5.47;2.23;;;;;;;;;;5075926;28;20205;-66
2022/10/24 10:38:04;;;;;;;10.07;2.57;;;;;;;;;;5075874;28;20350;-66
2022/10/24 10:40:38;;;;;;;7.13;2.40;;;;;;;;;;5057730;28;20257;-66
2022/10/24 10:43:17;;;;;;;10.33;3.83;;;;;;;;;;5056520;28;20167;-66
2022/10/24 10:45:51;;;;;;;10.77;2.87;;;;;;;;;;5076008;28;20157;-67
2022/10/24 10:48:24;;;;;;;7.73;2.40;;;;;;;;;;5075618;28;20181;-65
2022/10/24 10:51:09;;;;;;;7.83;2.80;;;;;;;;;;5076333;28;20224;-66
2022/10/24 10:53:53;;;;;;;7.97;2.87;;;;;;;;;;5076362;28;20579;-66
2022/10/24 10:56:19;;;;;;;9.60;2.73;;;;;;;;;;5076020;28;20178;-66
2022/10/24 10:59:03;;;;;;;11.33;3.37;;;;;;;;;;5076479;28;20184;-65
2022/10/24 11:01:50;;;;;;;8.67;2.73;;;;;;;;;;5076244;28;20158;-66
2022/10/24 11:04:19;;;;;;;11.17;3.00;;;;;;;;;;5047110;28;20210;-65
2022/10/24 11:06:45;;;;;;;11.37;2.73;;;;;;;;;;5075786;28;20181;-66
2022/10/24 11:09:29;;;;;;;8.60;2.90;;;;;;;;;;5075401;28;20189;-66
2022/10/24 11:12:00;;;;;;;12.17;2.57;;;;;;;;;;5075129;28;20184;-66
2022/10/24 11:14:32;;;;;;;9.87;2.90;;;;;;;;;;5075383;28;20247;-66
2022/10/24 11:17:02;;;;;;;7.43;2.17;;;;;;;;;;5075249;28;20654;-66
2022/10/24 11:19:31;;;;;;;11.37;3.03;;;;;;;;;;5075299;28;20178;-66
2022/10/24 11:22:00;;;;;;;9.67;2.83;;;;;;;;;;5075129;28;20174;-65
2022/10/24 11:24:26;;;;;;;7.83;2.47;;;;;;;;;;5075095;28;20652;-66
2022/10/24 11:27:02;;;;;;;9.27;3.07;;;;;;;;;;5076829;28;20182;-65
2022/10/24 11:29:36;;;;;;;7.20;2.40;;;;;;;;;;5076190;28;20192;-66
2022/10/24 11:32:02;;;;;;;10.53;2.93;;;;;;;;;;5077693;28;20174;-66
2022/10/24 11:34:31;;;;;;;13.10;3.00;;;;;;;;;;5088314;28;20194;-66
2022/10/24 11:37:02;;;;;;;11.00;3.00;;;;;;;;;;5075280;28;20288;-66
2022/10/24 11:39:30;;;;;;;12.13;3.30;;;;;;;;;;5060580;28;20192;-66
2022/10/24 11:42:02;;;;;;;8.77;2.70;;;;;;;;;;5076456;28;20166;-66
2022/10/24 11:44:34;;;;;;;14.87;3.17;;;;;;;;;;5076087;28;20581;-66
2022/10/24 11:47:18;;;;;;;10.13;2.90;;;;;;;;;;5057981;28;20269;-65
2022/10/24 11:49:47;;;;;;;10.37;2.77;;;;;;;;;;5074340;28;20232;-66
2022/10/24 11:52:24;;;;;;;8.43;2.60;;;;;;;;;;5074363;28;20184;-66
2022/10/24 11:54:56;;;;;;;8.80;2.63;;;;;;;;;;5074338;28;20201;-65
2022/10/24 11:57:23;;;;;;;13.50;3.03;;;;;;;;;;5074664;28;20584;-65
2022/10/24 11:59:53;;;;;;;11.10;2.90;;;;;;;;;;5074219;28;20656;-66
2022/10/24 12:02:40;;;;;;;12.10;3.70;;;;;;;;;;5053932;28;20217;-66
2022/10/24 12:05:13;;;;;;;12.70;3.07;;;;;;;;;;5053856;28;20202;-66
2022/10/24 12:07:45;;;;;;;13.83;3.20;;;;;;;;;;5054286;28;20171;-66
2022/10/24 12:10:20;;;;;;;16.50;3.17;;;;;;;;;;5053956;28;20186;-66
2022/10/24 12:12:49;;;;;;;8.30;2.83;;;;;;;;;;5053695;28;20182;-66
2022/10/24 12:15:15;;;;;;;6.60;2.67;;;;;;;;;;5053805;28;20199;-66
2022/10/24 12:17:48;;;;;;;12.33;3.17;;;;;;;;;;5043356;28;20264;-67
2022/10/24 12:20:16;;;;;;;7.83;2.50;;;;;;;;;;5040446;28;20201;-67
2022/10/24 12:22:43;;;;;;;10.90;3.07;;;;;;;;;;5058463;28;20174;-66
2022/10/24 12:25:28;;;;;;;12.33;3.03;;;;;;;;;;5039859;28;20761;-65
2022/10/24 12:27:56;;;;;;;10.07;2.70;;;;;;;;;;5036215;28;20711;-66
2022/10/24 12:30:23;;;;;;;8.00;2.57;;;;;;;;;;5053731;28;20642;-66
2022/10/24 12:32:51;;;;;;;12.40;3.27;;;;;;;;;;5035916;28;20236;-66
2022/10/24 12:35:26;;;;;;;12.40;3.67;;;;;;;;;;5053471;28;20199;-66
2022/10/24 12:37:53;;;;;;;10.77;3.00;;;;;;;;;;5053470;28;20198;-67
2022/10/24 12:40:37;;;;;;;7.47;2.53;;;;;;;;;;5053411;28;20261;-66
2022/10/24 12:43:03;;;;;;;10.07;2.60;;;;;;;;;;5053629;28;20171;-66
2022/10/24 12:45:30;;;;;;;9.50;2.30;;;;;;;;;;5035278;28;20220;-65
2022/10/24 12:47:56;;;;;;;5.87;2.10;;;;;;;;;;5053445;28;20253;-65
2022/10/24 12:50:23;;;;;;;8.77;2.90;;;;;;;;;;5053451;28;20260;-65
2022/10/24 12:52:50;;;;;;;9.93;2.90;;;;;;;;;;5053350;28;20181;-65
2022/10/24 12:55:35;;;;;;;9.83;2.70;;;;;;;;;;5052961;28;20198;-65
2022/10/24 12:58:02;;;;;;;7.23;2.87;;;;;;;;;;5035187;28;20210;-67
2022/10/24 13:00:30;;;;;;;11.00;2.93;;;;;;;;;;5053702;28;20171;-65
2022/10/24 13:02:58;;;;;;;11.40;2.60;;;;;;;;;;5035242;28;20650;-65
2022/10/24 13:05:27;;;;;;;7.33;2.63;;;;;;;;;;5052740;28;20666;-65
2022/10/24 13:07:53;;;;;;;6.80;2.37;;;;;;;;;;5052958;28;20186;-66
2022/10/24 13:10:38;;;;;;;9.90;2.57;;;;;;;;;;5052892;28;20175;-66
2022/10/24 13:13:11;;;;;;;12.60;2.97;;;;;;;;;;5052994;28;20185;-66
2022/10/24 13:15:46;;;;;;;8.00;2.60;;;;;;;;;;5053238;28;20167;-66
2022/10/24 13:18:11;;;;;;;5.43;2.23;;;;;;;;;;5053220;28;20284;-66
2022/10/24 13:20:39;;;;;;;11.93;2.77;;;;;;;;;;5035019;28;20182;-66
2022/10/24 13:23:12;;;;;;;11.07;2.90;;;;;;;;;;5034857;28;20630;-65
2022/10/24 13:25:39;;;;;;;10.30;2.67;;;;;;;;;;5035059;28;20166;-66
2022/10/24 13:28:22;;;;;;;7.20;2.90;;;;;;;;;;5052770;28;20174;-66
2022/10/24 13:30:52;;;;;;;7.73;2.63;;;;;;;;;;5053274;28;20174;-66
2022/10/24 13:33:30;;;;;;;6.40;2.30;;;;;;;;;;5052677;28;20178;-65
2022/10/24 13:35:57;;;;;;;11.03;2.57;;;;;;;;;;5053038;28;20639;-66
2022/10/24 13:38:23;;;;;;;13.13;2.93;;;;;;;;;;5034709;28;20205;-66
2022/10/24 13:40:49;;;;;;;10.03;2.47;;;;;;;;;;5034865;28;20209;-66
2022/10/24 13:43:18;;;;;;;5.57;2.30;;;;;;;;;;5052598;28;20214;-65
2022/10/24 13:46:03;;;;;;;8.53;1.93;;;;;;;;;;5063262;22;20231;-67
2022/10/24 13:48:31;;;;;;;7.43;2.17;;;;;;;;;;5033027;28;20187;-67
2022/10/24 13:51:03;;;;;;;5.97;1.90;;;;;;;;;;5015253;28;20183;-67
2022/10/24 13:53:35;;;;;;;9.87;2.17;;;;;;;;;;5033050;28;20179;-67
2022/10/24 13:56:09;;;;;;;6.10;1.97;;;;;;;;;;5032918;28;20198;-67
2022/10/24 13:58:39;;;;;;;5.93;2.17;;;;;;;;;;5033034;28;20562;-64
2022/10/24 14:01:06;;;;;;;6.27;2.73;;;;;;;;;;5032707;28;20186;-64
2022/10/24 14:03:34;;;;;;;8.23;2.77;;;;;;;;;;5032703;28;20175;-64
2022/10/24 14:06:09;;;;;;;7.57;2.53;;;;;;;;;;5033124;28;20219;-64
2022/10/24 14:08:36;;;;;;;8.80;3.00;;;;;;;;;;5033016;28;20205;-64
2022/10/24 14:11:04;;;;;;;10.00;3.60;;;;;;;;;;5032841;28;20652;-64
2022/10/24 14:13:31;;;;;;;12.40;2.90;;;;;;;;;;5032770;28;20238;-64
2022/10/24 14:16:02;;;;;;;9.47;2.87;;;;;;;;;;5032468;28;20654;-65
2022/10/24 14:18:28;;;;;;;10.97;2.63;;;;;;;;;;5035024;28;20214;-65
2022/10/24 14:20:55;;;;;;;12.10;2.90;;;;;;;;;;5036670;28;20179;-65
2022/10/24 14:23:29;;;;;;;9.73;2.90;;;;;;;;;;5036074;28;20582;-66
2022/10/24 14:25:57;;;;;;;7.47;2.20;;;;;;;;;;5018436;28;20202;-66
2022/10/24 14:28:26;;;;;;;6.90;2.13;;;;;;;;;;5018791;28;20190;-65
2022/10/24 14:30:56;;;;;;;9.80;1.47;;;;;;;;;;5036001;28;20626;-64
2022/10/24 14:33:24;;;;;;;5.93;1.67;;;;;;;;;;5018409;28;20582;-65
2022/10/24 14:35:51;;;;;;;3.40;1.97;;;;;;;;;;5018256;28;20203;-64
2022/10/24 14:38:17;;;;;;;10.50;2.10;;;;;;;;;;5035779;28;20198;-65
2022/10/24 14:40:44;;;;;;;5.87;2.13;;;;;;;;;;5017947;28;20182;-65
2022/10/24 14:43:21;;;;;;;5.70;2.23;;;;;;;;;;5017859;28;20270;-64
2022/10/24 14:46:06;;;;;;;7.23;2.47;;;;;;;;;;5035494;28;20214;-65
2022/10/24 14:48:32;;;;;;;17.30;3.40;;;;;;;;;;5035522;28;20702;-65